sensor_id;sensor_type;location;lat;lon;timestamp;P1;durP1;ratioP1;P2;durP2;ratioP2
37907;SDS011;23740;51.550;6.846;2023-07-13T00:03:40;4.03;;;1.40;;
37907;SDS011;23740;51.550;6.846;2023-07-13T00:06:08;3.42;;;1.33;;
37907;SDS011;23740;51.550;6.846;2023-07-13T00:08:37;3.90;;;1.13;;
37907;SDS011;23740;51.550;6.846;2023-07-13T00:11:05;2.95;;;1.33;;
37907;SDS011;23740;51.550;6.846;2023-07-13T00:13:33;2.03;;;1.38;;
37907;SDS011;23740;51.550;6.846;2023-07-13T00:16:02;3.45;;;1.25;;
37907;SDS011;23740;51.550;6.846;2023-07-13T00:18:30;2.67;;;1.50;;
37907;SDS011;23740;51.550;6.846;2023-07-13T00:20:58;3.33;;;1.95;;
37907;SDS011;23740;51.550;6.846;2023-07-13T00:23:31;3.75;;;2.10;;
37907;SDS011;23740;51.550;6.846;2023-07-13T00:26:00;1.10;;;0.93;;
37907;SDS011;23740;51.550;6.846;2023-07-13T00:28:28;2.25;;;1.23;;
37907;SDS011;23740;51.550;6.846;2023-07-13T00:30:56;1.52;;;1.10;;
37907;SDS011;23740;51.550;6.846;2023-07-13T00:33:26;2.67;;;1.13;;
37907;SDS011;23740;51.550;6.846;2023-07-13T00:35:55;2.60;;;1.02;;
37907;SDS011;23740;51.550;6.846;2023-07-13T00:38:24;1.67;;;1.27;;
37907;SDS011;23740;51.550;6.846;2023-07-13T00:40:52;4.80;;;1.02;;
37907;SDS011;23740;51.550;6.846;2023-07-13T00:43:21;2.15;;;1.63;;
37907;SDS011;23740;51.550;6.846;2023-07-13T00:48:48;2.47;;;1.80;;
37907;SDS011;23740;51.550;6.846;2023-07-13T00:51:17;7.13;;;1.98;;
37907;SDS011;23740;51.550;6.846;2023-07-13T00:53:47;3.60;;;1.25;;
37907;SDS011;23740;51.550;6.846;2023-07-13T00:56:15;5.07;;;1.63;;
37907;SDS011;23740;51.550;6.846;2023-07-13T00:58:43;3.25;;;1.35;;
37907;SDS011;23740;51.550;6.846;2023-07-13T01:01:12;1.95;;;1.15;;
37907;SDS011;23740;51.550;6.846;2023-07-13T01:03:40;2.58;;;1.10;;
37907;SDS011;23740;51.550;6.846;2023-07-13T01:06:10;2.25;;;1.48;;
37907;SDS011;23740;51.550;6.846;2023-07-13T01:08:39;1.58;;;0.93;;
37907;SDS011;23740;51.550;6.846;2023-07-13T01:11:07;2.25;;;1.50;;
37907;SDS011;23740;51.550;6.846;2023-07-13T01:13:35;2.70;;;1.23;;
37907;SDS011;23740;51.550;6.846;2023-07-13T01:16:04;3.13;;;1.20;;
37907;SDS011;23740;51.550;6.846;2023-07-13T01:18:40;2.85;;;1.30;;
37907;SDS011;23740;51.550;6.846;2023-07-13T01:21:09;3.08;;;1.35;;
37907;SDS011;23740;51.550;6.846;2023-07-13T01:23:37;2.65;;;1.33;;
37907;SDS011;23740;51.550;6.846;2023-07-13T01:26:04;2.20;;;1.35;;
37907;SDS011;23740;51.550;6.846;2023-07-13T01:28:32;2.88;;;1.55;;
37907;SDS011;23740;51.550;6.846;2023-07-13T01:31:04;1.88;;;1.20;;
37907;SDS011;23740;51.550;6.846;2023-07-13T01:33:31;2.10;;;1.48;;
37907;SDS011;23740;51.550;6.846;2023-07-13T01:35:59;3.72;;;1.65;;
37907;SDS011;23740;51.550;6.846;2023-07-13T01:38:29;5.28;;;1.23;;
37907;SDS011;23740;51.550;6.846;2023-07-13T01:40:57;3.15;;;1.40;;
37907;SDS011;23740;51.550;6.846;2023-07-13T01:43:25;2.38;;;1.02;;
37907;SDS011;23740;51.550;6.846;2023-07-13T01:45:53;4.88;;;1.98;;
37907;SDS011;23740;51.550;6.846;2023-07-13T01:48:34;3.67;;;1.40;;
37907;SDS011;23740;51.550;6.846;2023-07-13T01:51:02;2.35;;;1.27;;
37907;SDS011;23740;51.550;6.846;2023-07-13T01:53:32;4.28;;;1.40;;
37907;SDS011;23740;51.550;6.846;2023-07-13T01:55:59;1.83;;;1.13;;
37907;SDS011;23740;51.550;6.846;2023-07-13T01:58:27;1.88;;;1.20;;
37907;SDS011;23740;51.550;6.846;2023-07-13T02:00:55;2.75;;;1.13;;
37907;SDS011;23740;51.550;6.846;2023-07-13T02:03:23;1.38;;;0.98;;
37907;SDS011;23740;51.550;6.846;2023-07-13T02:05:50;2.65;;;1.17;;
37907;SDS011;23740;51.550;6.846;2023-07-13T02:08:18;2.22;;;0.98;;
37907;SDS011;23740;51.550;6.846;2023-07-13T02:10:47;1.33;;;1.15;;
37907;SDS011;23740;51.550;6.846;2023-07-13T02:13:15;3.30;;;1.33;;
37907;SDS011;23740;51.550;6.846;2023-07-13T02:15:43;4.55;;;1.13;;
37907;SDS011;23740;51.550;6.846;2023-07-13T02:18:11;2.80;;;1.25;;
37907;SDS011;23740;51.550;6.846;2023-07-13T02:20:43;10.93;;;1.83;;
37907;SDS011;23740;51.550;6.846;2023-07-13T02:23:11;3.58;;;1.40;;
37907;SDS011;23740;51.550;6.846;2023-07-13T02:25:39;3.00;;;1.40;;
37907;SDS011;23740;51.550;6.846;2023-07-13T02:28:08;2.97;;;1.42;;
37907;SDS011;23740;51.550;6.846;2023-07-13T02:30:36;2.88;;;1.20;;
37907;SDS011;23740;51.550;6.846;2023-07-13T02:33:04;2.85;;;1.27;;
37907;SDS011;23740;51.550;6.846;2023-07-13T02:35:32;2.88;;;1.35;;
37907;SDS011;23740;51.550;6.846;2023-07-13T02:38:00;3.72;;;1.23;;
37907;SDS011;23740;51.550;6.846;2023-07-13T02:40:28;3.10;;;1.33;;
37907;SDS011;23740;51.550;6.846;2023-07-13T02:42:59;2.50;;;0.90;;
37907;SDS011;23740;51.550;6.846;2023-07-13T02:45:28;2.88;;;1.38;;
37907;SDS011;23740;51.550;6.846;2023-07-13T02:47:56;2.78;;;1.25;;
37907;SDS011;23740;51.550;6.846;2023-07-13T02:50:24;2.17;;;1.48;;
37907;SDS011;23740;51.550;6.846;2023-07-13T02:52:51;3.67;;;1.42;;
37907;SDS011;23740;51.550;6.846;2023-07-13T02:55:19;3.10;;;1.30;;
37907;SDS011;23740;51.550;6.846;2023-07-13T02:57:47;2.13;;;1.30;;
37907;SDS011;23740;51.550;6.846;2023-07-13T03:00:15;4.28;;;1.33;;
37907;SDS011;23740;51.550;6.846;2023-07-13T03:02:45;4.15;;;1.23;;
37907;SDS011;23740;51.550;6.846;2023-07-13T03:05:13;2.15;;;1.60;;
37907;SDS011;23740;51.550;6.846;2023-07-13T03:07:41;3.25;;;1.25;;
37907;SDS011;23740;51.550;6.846;2023-07-13T03:10:10;2.85;;;1.13;;
37907;SDS011;23740;51.550;6.846;2023-07-13T03:12:38;1.25;;;1.15;;
37907;SDS011;23740;51.550;6.846;2023-07-13T03:15:06;1.88;;;1.30;;
37907;SDS011;23740;51.550;6.846;2023-07-13T03:17:34;2.30;;;1.23;;
37907;SDS011;23740;51.550;6.846;2023-07-13T03:20:04;3.53;;;1.08;;
37907;SDS011;23740;51.550;6.846;2023-07-13T03:22:33;2.53;;;1.17;;
37907;SDS011;23740;51.550;6.846;2023-07-13T03:25:01;4.30;;;1.42;;
37907;SDS011;23740;51.550;6.846;2023-07-13T03:27:29;3.55;;;1.48;;
37907;SDS011;23740;51.550;6.846;2023-07-13T03:29:56;3.55;;;1.67;;
37907;SDS011;23740;51.550;6.846;2023-07-13T03:32:24;4.80;;;1.27;;
37907;SDS011;23740;51.550;6.846;2023-07-13T03:34:52;2.17;;;1.23;;
37907;SDS011;23740;51.550;6.846;2023-07-13T03:37:21;2.90;;;1.40;;
37907;SDS011;23740;51.550;6.846;2023-07-13T03:39:49;3.10;;;1.55;;
37907;SDS011;23740;51.550;6.846;2023-07-13T03:42:16;2.13;;;1.20;;
37907;SDS011;23740;51.550;6.846;2023-07-13T03:44:44;3.50;;;1.17;;
37907;SDS011;23740;51.550;6.846;2023-07-13T03:47:18;5.22;;;1.42;;
37907;SDS011;23740;51.550;6.846;2023-07-13T03:49:46;4.45;;;2.03;;
37907;SDS011;23740;51.550;6.846;2023-07-13T03:52:14;3.03;;;1.45;;
37907;SDS011;23740;51.550;6.846;2023-07-13T03:54:43;3.40;;;1.77;;
37907;SDS011;23740;51.550;6.846;2023-07-13T03:57:11;5.57;;;1.60;;
37907;SDS011;23740;51.550;6.846;2023-07-13T03:59:38;2.53;;;1.20;;
37907;SDS011;23740;51.550;6.846;2023-07-13T04:02:06;3.78;;;1.42;;
37907;SDS011;23740;51.550;6.846;2023-07-13T04:04:35;3.28;;;1.33;;
37907;SDS011;23740;51.550;6.846;2023-07-13T04:07:03;1.63;;;1.45;;
37907;SDS011;23740;51.550;6.846;2023-07-13T04:09:31;2.25;;;1.48;;
37907;SDS011;23740;51.550;6.846;2023-07-13T04:12:00;4.15;;;1.33;;
37907;SDS011;23740;51.550;6.846;2023-07-13T04:14:28;2.75;;;1.20;;
37907;SDS011;23740;51.550;6.846;2023-07-13T04:16:56;1.40;;;1.25;;
37907;SDS011;23740;51.550;6.846;2023-07-13T04:19:23;3.03;;;1.63;;
37907;SDS011;23740;51.550;6.846;2023-07-13T04:21:51;2.05;;;1.45;;
37907;SDS011;23740;51.550;6.846;2023-07-13T04:24:19;1.40;;;0.95;;
37907;SDS011;23740;51.550;6.846;2023-07-13T04:26:47;1.77;;;1.35;;
37907;SDS011;23740;51.550;6.846;2023-07-13T04:29:17;4.13;;;1.50;;
37907;SDS011;23740;51.550;6.846;2023-07-13T04:31:45;2.70;;;1.92;;
37907;SDS011;23740;51.550;6.846;2023-07-13T04:34:14;1.73;;;1.40;;
37907;SDS011;23740;51.550;6.846;2023-07-13T04:36:43;2.22;;;1.52;;
37907;SDS011;23740;51.550;6.846;2023-07-13T04:39:10;1.77;;;1.33;;
37907;SDS011;23740;51.550;6.846;2023-07-13T04:41:38;2.42;;;1.33;;
37907;SDS011;23740;51.550;6.846;2023-07-13T04:44:06;1.95;;;1.52;;
37907;SDS011;23740;51.550;6.846;2023-07-13T04:46:35;2.33;;;1.40;;
37907;SDS011;23740;51.550;6.846;2023-07-13T04:49:03;2.67;;;1.45;;
37907;SDS011;23740;51.550;6.846;2023-07-13T04:51:31;1.45;;;1.33;;
37907;SDS011;23740;51.550;6.846;2023-07-13T04:53:59;3.45;;;1.80;;
37907;SDS011;23740;51.550;6.846;2023-07-13T04:56:27;4.63;;;1.75;;
37907;SDS011;23740;51.550;6.846;2023-07-13T04:58:55;3.33;;;1.30;;
37907;SDS011;23740;51.550;6.846;2023-07-13T05:01:24;2.72;;;1.45;;
37907;SDS011;23740;51.550;6.846;2023-07-13T05:03:54;2.45;;;1.55;;
37907;SDS011;23740;51.550;6.846;2023-07-13T05:06:25;2.78;;;2.10;;
37907;SDS011;23740;51.550;6.846;2023-07-13T05:08:52;3.08;;;1.27;;
37907;SDS011;23740;51.550;6.846;2023-07-13T05:11:20;4.05;;;1.23;;
37907;SDS011;23740;51.550;6.846;2023-07-13T05:13:49;3.22;;;1.42;;
37907;SDS011;23740;51.550;6.846;2023-07-13T05:16:17;4.72;;;1.58;;
37907;SDS011;23740;51.550;6.846;2023-07-13T05:18:46;4.53;;;1.70;;
37907;SDS011;23740;51.550;6.846;2023-07-13T05:21:15;4.30;;;1.73;;
37907;SDS011;23740;51.550;6.846;2023-07-13T05:23:43;2.47;;;1.48;;
37907;SDS011;23740;51.550;6.846;2023-07-13T05:26:11;4.63;;;2.10;;
37907;SDS011;23740;51.550;6.846;2023-07-13T05:28:39;7.50;;;2.40;;
37907;SDS011;23740;51.550;6.846;2023-07-13T05:31:07;4.30;;;1.92;;
37907;SDS011;23740;51.550;6.846;2023-07-13T05:33:36;1.95;;;1.60;;
37907;SDS011;23740;51.550;6.846;2023-07-13T05:36:03;5.43;;;2.30;;
37907;SDS011;23740;51.550;6.846;2023-07-13T05:38:33;5.47;;;2.28;;
37907;SDS011;23740;51.550;6.846;2023-07-13T05:41:01;5.30;;;2.35;;
37907;SDS011;23740;51.550;6.846;2023-07-13T05:43:32;4.18;;;2.28;;
37907;SDS011;23740;51.550;6.846;2023-07-13T05:46:00;4.75;;;2.10;;
37907;SDS011;23740;51.550;6.846;2023-07-13T05:48:28;3.42;;;1.98;;
37907;SDS011;23740;51.550;6.846;2023-07-13T05:50:55;3.20;;;1.58;;
37907;SDS011;23740;51.550;6.846;2023-07-13T05:53:23;6.47;;;1.88;;
37907;SDS011;23740;51.550;6.846;2023-07-13T05:55:53;6.07;;;2.10;;
37907;SDS011;23740;51.550;6.846;2023-07-13T05:58:21;4.72;;;1.92;;
37907;SDS011;23740;51.550;6.846;2023-07-13T06:00:57;4.60;;;1.90;;
37907;SDS011;23740;51.550;6.846;2023-07-13T06:03:26;4.00;;;2.13;;
37907;SDS011;23740;51.550;6.846;2023-07-13T06:05:54;3.00;;;1.85;;
37907;SDS011;23740;51.550;6.846;2023-07-13T06:08:22;3.30;;;2.42;;
37907;SDS011;23740;51.550;6.846;2023-07-13T06:10:49;6.85;;;3.25;;
37907;SDS011;23740;51.550;6.846;2023-07-13T06:13:18;3.95;;;2.97;;
37907;SDS011;23740;51.550;6.846;2023-07-13T06:15:47;3.97;;;1.83;;
37907;SDS011;23740;51.550;6.846;2023-07-13T06:18:15;4.20;;;2.40;;
37907;SDS011;23740;51.550;6.846;2023-07-13T06:20:43;2.95;;;1.98;;
37907;SDS011;23740;51.550;6.846;2023-07-13T06:23:11;5.38;;;3.22;;
37907;SDS011;23740;51.550;6.846;2023-07-13T06:25:39;7.68;;;2.53;;
37907;SDS011;23740;51.550;6.846;2023-07-13T06:28:07;5.57;;;2.85;;
37907;SDS011;23740;51.550;6.846;2023-07-13T06:30:38;4.55;;;2.30;;
37907;SDS011;23740;51.550;6.846;2023-07-13T06:33:06;6.82;;;2.58;;
37907;SDS011;23740;51.550;6.846;2023-07-13T06:35:34;6.30;;;2.92;;
37907;SDS011;23740;51.550;6.846;2023-07-13T06:38:02;4.10;;;2.05;;
37907;SDS011;23740;51.550;6.846;2023-07-13T06:40:30;2.53;;;1.83;;
37907;SDS011;23740;51.550;6.846;2023-07-13T06:42:58;6.93;;;2.25;;
37907;SDS011;23740;51.550;6.846;2023-07-13T06:45:26;3.38;;;2.30;;
37907;SDS011;23740;51.550;6.846;2023-07-13T06:47:55;5.35;;;2.75;;
37907;SDS011;23740;51.550;6.846;2023-07-13T06:50:23;8.63;;;3.80;;
37907;SDS011;23740;51.550;6.846;2023-07-13T06:52:51;6.38;;;3.22;;
37907;SDS011;23740;51.550;6.846;2023-07-13T06:55:19;4.97;;;2.70;;
37907;SDS011;23740;51.550;6.846;2023-07-13T06:57:47;5.53;;;2.75;;
37907;SDS011;23740;51.550;6.846;2023-07-13T07:00:15;7.20;;;4.47;;
37907;SDS011;23740;51.550;6.846;2023-07-13T07:02:43;9.93;;;4.10;;
37907;SDS011;23740;51.550;6.846;2023-07-13T07:05:12;8.02;;;4.45;;
37907;SDS011;23740;51.550;6.846;2023-07-13T07:07:41;7.75;;;3.35;;
37907;SDS011;23740;51.550;6.846;2023-07-13T07:10:08;5.93;;;2.60;;
37907;SDS011;23740;51.550;6.846;2023-07-13T07:12:36;5.85;;;3.58;;
37907;SDS011;23740;51.550;6.846;2023-07-13T07:15:04;8.07;;;4.68;;
37907;SDS011;23740;51.550;6.846;2023-07-13T07:17:32;9.23;;;4.47;;
37907;SDS011;23740;51.550;6.846;2023-07-13T07:20:00;5.90;;;4.50;;
37907;SDS011;23740;51.550;6.846;2023-07-13T07:22:31;7.18;;;3.55;;
37907;SDS011;23740;51.550;6.846;2023-07-13T07:24:59;5.57;;;3.45;;
37907;SDS011;23740;51.550;6.846;2023-07-13T07:27:27;7.00;;;3.83;;
37907;SDS011;23740;51.550;6.846;2023-07-13T07:29:57;5.25;;;3.13;;
37907;SDS011;23740;51.550;6.846;2023-07-13T07:32:46;6.10;;;2.70;;
37907;SDS011;23740;51.550;6.846;2023-07-13T07:35:16;8.73;;;3.80;;
37907;SDS011;23740;51.550;6.846;2023-07-13T07:37:46;4.95;;;3.45;;
37907;SDS011;23740;51.550;6.846;2023-07-13T07:40:16;5.57;;;2.83;;
37907;SDS011;23740;51.550;6.846;2023-07-13T07:42:47;6.13;;;3.53;;
37907;SDS011;23740;51.550;6.846;2023-07-13T07:45:15;5.85;;;3.30;;
37907;SDS011;23740;51.550;6.846;2023-07-13T07:47:43;4.63;;;3.28;;
37907;SDS011;23740;51.550;6.846;2023-07-13T07:50:10;5.60;;;4.05;;
37907;SDS011;23740;51.550;6.846;2023-07-13T07:52:39;6.68;;;5.03;;
37907;SDS011;23740;51.550;6.846;2023-07-13T07:55:08;5.10;;;4.60;;
37907;SDS011;23740;51.550;6.846;2023-07-13T07:57:39;6.40;;;5.28;;
37907;SDS011;23740;51.550;6.846;2023-07-13T08:00:10;6.25;;;3.90;;
37907;SDS011;23740;51.550;6.846;2023-07-13T08:02:41;4.50;;;3.92;;
37907;SDS011;23740;51.550;6.846;2023-07-13T08:05:12;4.05;;;3.75;;
37907;SDS011;23740;51.550;6.846;2023-07-13T08:07:43;4.55;;;4.15;;
37907;SDS011;23740;51.550;6.846;2023-07-13T08:10:12;6.10;;;5.07;;
37907;SDS011;23740;51.550;6.846;2023-07-13T08:12:40;5.30;;;4.05;;
37907;SDS011;23740;51.550;6.846;2023-07-13T08:15:28;4.65;;;3.92;;
37907;SDS011;23740;51.550;6.846;2023-07-13T08:17:55;5.28;;;4.70;;
37907;SDS011;23740;51.550;6.846;2023-07-13T08:20:23;5.82;;;4.20;;
37907;SDS011;23740;51.550;6.846;2023-07-13T08:22:51;4.25;;;3.80;;
37907;SDS011;23740;51.550;6.846;2023-07-13T08:25:20;3.92;;;3.53;;
37907;SDS011;23740;51.550;6.846;2023-07-13T08:27:49;4.90;;;3.63;;
37907;SDS011;23740;51.550;6.846;2023-07-13T08:30:16;4.65;;;3.60;;
37907;SDS011;23740;51.550;6.846;2023-07-13T08:32:44;5.25;;;4.50;;
37907;SDS011;23740;51.550;6.846;2023-07-13T08:35:12;4.40;;;4.00;;
37907;SDS011;23740;51.550;6.846;2023-07-13T08:37:42;5.90;;;3.75;;
37907;SDS011;23740;51.550;6.846;2023-07-13T08:40:10;4.40;;;3.55;;
37907;SDS011;23740;51.550;6.846;2023-07-13T08:42:42;6.63;;;6.07;;
37907;SDS011;23740;51.550;6.846;2023-07-13T08:45:14;4.22;;;3.38;;
37907;SDS011;23740;51.550;6.846;2023-07-13T08:47:46;5.53;;;3.65;;
37907;SDS011;23740;51.550;6.846;2023-07-13T08:50:17;5.80;;;5.40;;
37907;SDS011;23740;51.550;6.846;2023-07-13T08:52:45;5.85;;;4.75;;
37907;SDS011;23740;51.550;6.846;2023-07-13T08:55:14;4.53;;;4.22;;
37907;SDS011;23740;51.550;6.846;2023-07-13T08:57:45;6.65;;;4.50;;
37907;SDS011;23740;51.550;6.846;2023-07-13T09:00:15;5.45;;;4.38;;
37907;SDS011;23740;51.550;6.846;2023-07-13T09:02:45;6.38;;;5.78;;
37907;SDS011;23740;51.550;6.846;2023-07-13T09:05:14;5.45;;;4.53;;
37907;SDS011;23740;51.550;6.846;2023-07-13T09:07:52;6.03;;;3.95;;
37907;SDS011;23740;51.550;6.846;2023-07-13T09:10:26;5.80;;;4.10;;
37907;SDS011;23740;51.550;6.846;2023-07-13T09:13:00;5.38;;;4.88;;
37907;SDS011;23740;51.550;6.846;2023-07-13T09:15:36;4.97;;;4.57;;
37907;SDS011;23740;51.550;6.846;2023-07-13T09:18:08;5.18;;;3.83;;
37907;SDS011;23740;51.550;6.846;2023-07-13T09:20:39;5.95;;;4.10;;
37907;SDS011;23740;51.550;6.846;2023-07-13T09:23:11;5.45;;;3.70;;
37907;SDS011;23740;51.550;6.846;2023-07-13T09:25:40;4.88;;;3.45;;
37907;SDS011;23740;51.550;6.846;2023-07-13T09:28:17;4.43;;;3.55;;
37907;SDS011;23740;51.550;6.846;2023-07-13T09:30:50;6.72;;;3.60;;
37907;SDS011;23740;51.550;6.846;2023-07-13T09:33:20;4.25;;;3.53;;
37907;SDS011;23740;51.550;6.846;2023-07-13T09:35:49;6.60;;;3.58;;
37907;SDS011;23740;51.550;6.846;2023-07-13T09:38:17;6.93;;;2.95;;
37907;SDS011;23740;51.550;6.846;2023-07-13T09:40:53;4.85;;;3.20;;
37907;SDS011;23740;51.550;6.846;2023-07-13T09:43:28;5.05;;;3.58;;
37907;SDS011;23740;51.550;6.846;2023-07-13T09:45:56;5.07;;;2.55;;
37907;SDS011;23740;51.550;6.846;2023-07-13T09:48:24;5.50;;;2.92;;
37907;SDS011;23740;51.550;6.846;2023-07-13T09:50:54;4.47;;;3.15;;
37907;SDS011;23740;51.550;6.846;2023-07-13T09:53:23;3.33;;;2.47;;
37907;SDS011;23740;51.550;6.846;2023-07-13T09:55:51;4.55;;;3.13;;
37907;SDS011;23740;51.550;6.846;2023-07-13T09:58:20;4.20;;;2.70;;
37907;SDS011;23740;51.550;6.846;2023-07-13T10:00:56;5.20;;;2.35;;
37907;SDS011;23740;51.550;6.846;2023-07-13T10:03:25;6.70;;;2.67;;
37907;SDS011;23740;51.550;6.846;2023-07-13T10:05:54;4.38;;;2.95;;
37907;SDS011;23740;51.550;6.846;2023-07-13T10:08:30;4.95;;;2.83;;
37907;SDS011;23740;51.550;6.846;2023-07-13T10:10:59;4.22;;;2.97;;
37907;SDS011;23740;51.550;6.846;2023-07-13T10:13:30;4.68;;;2.80;;
37907;SDS011;23740;51.550;6.846;2023-07-13T10:16:04;4.50;;;2.45;;
37907;SDS011;23740;51.550;6.846;2023-07-13T10:18:39;3.03;;;2.53;;
37907;SDS011;23740;51.550;6.846;2023-07-13T10:21:14;2.90;;;2.47;;
37907;SDS011;23740;51.550;6.846;2023-07-13T10:23:48;5.78;;;2.33;;
37907;SDS011;23740;51.550;6.846;2023-07-13T10:26:21;5.05;;;3.08;;
37907;SDS011;23740;51.550;6.846;2023-07-13T10:28:51;4.18;;;2.85;;
37907;SDS011;23740;51.550;6.846;2023-07-13T10:31:22;5.22;;;2.35;;
37907;SDS011;23740;51.550;6.846;2023-07-13T10:33:51;2.90;;;2.70;;
37907;SDS011;23740;51.550;6.846;2023-07-13T10:36:22;4.43;;;2.58;;
37907;SDS011;23740;51.550;6.846;2023-07-13T10:38:55;3.17;;;2.35;;
37907;SDS011;23740;51.550;6.846;2023-07-13T10:41:25;4.60;;;2.50;;
37907;SDS011;23740;51.550;6.846;2023-07-13T10:43:55;5.05;;;2.30;;
37907;SDS011;23740;51.550;6.846;2023-07-13T10:46:26;2.67;;;2.47;;
37907;SDS011;23740;51.550;6.846;2023-07-13T10:48:56;5.22;;;2.50;;
37907;SDS011;23740;51.550;6.846;2023-07-13T10:51:25;5.05;;;1.70;;
37907;SDS011;23740;51.550;6.846;2023-07-13T10:54:14;2.53;;;2.30;;
37907;SDS011;23740;51.550;6.846;2023-07-13T10:56:46;4.80;;;2.58;;
37907;SDS011;23740;51.550;6.846;2023-07-13T10:59:18;4.07;;;1.90;;
37907;SDS011;23740;51.550;6.846;2023-07-13T11:01:55;3.28;;;2.65;;
37907;SDS011;23740;51.550;6.846;2023-07-13T11:04:25;4.03;;;2.15;;
37907;SDS011;23740;51.550;6.846;2023-07-13T11:06:56;3.00;;;1.77;;
37907;SDS011;23740;51.550;6.846;2023-07-13T11:09:32;6.68;;;2.45;;
37907;SDS011;23740;51.550;6.846;2023-07-13T11:12:06;3.47;;;1.95;;
37907;SDS011;23740;51.550;6.846;2023-07-13T11:15:00;2.88;;;2.00;;
37907;SDS011;23740;51.550;6.846;2023-07-13T11:20:18;3.53;;;1.80;;
37907;SDS011;23740;51.550;6.846;2023-07-13T11:22:48;2.08;;;1.75;;
37907;SDS011;23740;51.550;6.846;2023-07-13T11:25:25;2.65;;;2.45;;
37907;SDS011;23740;51.550;6.846;2023-07-13T11:28:12;4.45;;;1.90;;
37907;SDS011;23740;51.550;6.846;2023-07-13T11:30:43;4.70;;;2.67;;
37907;SDS011;23740;51.550;6.846;2023-07-13T11:33:16;3.03;;;2.05;;
37907;SDS011;23740;51.550;6.846;2023-07-13T11:35:48;2.88;;;2.15;;
37907;SDS011;23740;51.550;6.846;2023-07-13T11:38:20;3.10;;;2.20;;
37907;SDS011;23740;51.550;6.846;2023-07-13T11:40:50;3.85;;;2.03;;
37907;SDS011;23740;51.550;6.846;2023-07-13T11:43:22;3.95;;;2.95;;
37907;SDS011;23740;51.550;6.846;2023-07-13T11:45:50;3.28;;;1.98;;
37907;SDS011;23740;51.550;6.846;2023-07-13T11:48:21;2.58;;;2.38;;
37907;SDS011;23740;51.550;6.846;2023-07-13T11:50:54;2.78;;;2.13;;
37907;SDS011;23740;51.550;6.846;2023-07-13T11:53:26;3.30;;;1.83;;
37907;SDS011;23740;51.550;6.846;2023-07-13T11:55:55;4.75;;;2.80;;
37907;SDS011;23740;51.550;6.846;2023-07-13T11:58:23;4.00;;;2.08;;
37907;SDS011;23740;51.550;6.846;2023-07-13T12:00:55;4.28;;;2.25;;
37907;SDS011;23740;51.550;6.846;2023-07-13T12:03:28;4.30;;;2.85;;
37907;SDS011;23740;51.550;6.846;2023-07-13T12:05:57;2.92;;;2.65;;
37907;SDS011;23740;51.550;6.846;2023-07-13T12:08:26;2.88;;;2.30;;
37907;SDS011;23740;51.550;6.846;2023-07-13T12:11:03;3.30;;;2.20;;
37907;SDS011;23740;51.550;6.846;2023-07-13T12:13:36;3.55;;;2.05;;
37907;SDS011;23740;51.550;6.846;2023-07-13T12:16:15;2.65;;;2.13;;
37907;SDS011;23740;51.550;6.846;2023-07-13T12:18:46;1.98;;;1.75;;
37907;SDS011;23740;51.550;6.846;2023-07-13T12:21:16;3.55;;;2.17;;
37907;SDS011;23740;51.550;6.846;2023-07-13T12:23:45;3.10;;;2.40;;
37907;SDS011;23740;51.550;6.846;2023-07-13T12:26:15;2.00;;;1.90;;
37907;SDS011;23740;51.550;6.846;2023-07-13T12:28:46;3.50;;;2.03;;
37907;SDS011;23740;51.550;6.846;2023-07-13T12:34:10;3.53;;;1.95;;
37907;SDS011;23740;51.550;6.846;2023-07-13T12:36:40;2.80;;;2.47;;
37907;SDS011;23740;51.550;6.846;2023-07-13T12:39:15;2.63;;;1.88;;
37907;SDS011;23740;51.550;6.846;2023-07-13T12:41:45;2.33;;;2.03;;
37907;SDS011;23740;51.550;6.846;2023-07-13T12:44:14;1.88;;;1.42;;
37907;SDS011;23740;51.550;6.846;2023-07-13T12:46:53;2.28;;;1.65;;
37907;SDS011;23740;51.550;6.846;2023-07-13T12:49:26;3.95;;;2.22;;
37907;SDS011;23740;51.550;6.846;2023-07-13T12:51:57;2.80;;;1.92;;
37907;SDS011;23740;51.550;6.846;2023-07-13T12:54:26;2.85;;;2.08;;
37907;SDS011;23740;51.550;6.846;2023-07-13T12:56:56;2.80;;;2.55;;
37907;SDS011;23740;51.550;6.846;2023-07-13T12:59:26;2.47;;;2.03;;
37907;SDS011;23740;51.550;6.846;2023-07-13T13:01:59;2.65;;;2.45;;
37907;SDS011;23740;51.550;6.846;2023-07-13T13:04:28;2.83;;;2.20;;
37907;SDS011;23740;51.550;6.846;2023-07-13T13:07:02;2.75;;;2.33;;
37907;SDS011;23740;51.550;6.846;2023-07-13T13:09:31;3.50;;;2.20;;
37907;SDS011;23740;51.550;6.846;2023-07-13T13:12:00;4.28;;;3.08;;
37907;SDS011;23740;51.550;6.846;2023-07-13T13:14:27;3.42;;;2.97;;
37907;SDS011;23740;51.550;6.846;2023-07-13T13:16:56;5.13;;;4.18;;
37907;SDS011;23740;51.550;6.846;2023-07-13T13:19:25;4.15;;;3.15;;
37907;SDS011;23740;51.550;6.846;2023-07-13T13:21:56;4.15;;;2.78;;
37907;SDS011;23740;51.550;6.846;2023-07-13T13:24:26;3.88;;;3.45;;
37907;SDS011;23740;51.550;6.846;2023-07-13T13:26:54;3.80;;;3.42;;
37907;SDS011;23740;51.550;6.846;2023-07-13T13:29:24;3.15;;;2.92;;
37907;SDS011;23740;51.550;6.846;2023-07-13T13:31:52;3.53;;;2.60;;
37907;SDS011;23740;51.550;6.846;2023-07-13T13:34:21;4.03;;;3.63;;
37907;SDS011;23740;51.550;6.846;2023-07-13T13:36:51;3.13;;;2.88;;
37907;SDS011;23740;51.550;6.846;2023-07-13T13:39:27;3.00;;;2.70;;
37907;SDS011;23740;51.550;6.846;2023-07-13T13:41:57;3.17;;;2.90;;
37907;SDS011;23740;51.550;6.846;2023-07-13T13:44:25;5.38;;;3.67;;
37907;SDS011;23740;51.550;6.846;2023-07-13T13:46:53;3.80;;;3.13;;
37907;SDS011;23740;51.550;6.846;2023-07-13T13:49:23;3.50;;;3.20;;
37907;SDS011;23740;51.550;6.846;2023-07-13T13:51:52;4.60;;;3.42;;
37907;SDS011;23740;51.550;6.846;2023-07-13T13:54:22;3.20;;;2.60;;
37907;SDS011;23740;51.550;6.846;2023-07-13T13:56:53;3.45;;;3.15;;
37907;SDS011;23740;51.550;6.846;2023-07-13T13:59:21;5.43;;;3.05;;
37907;SDS011;23740;51.550;6.846;2023-07-13T14:01:49;4.97;;;3.30;;
37907;SDS011;23740;51.550;6.846;2023-07-13T14:04:19;5.10;;;3.80;;
37907;SDS011;23740;51.550;6.846;2023-07-13T14:06:48;7.05;;;3.38;;
37907;SDS011;23740;51.550;6.846;2023-07-13T14:09:17;3.45;;;3.15;;
37907;SDS011;23740;51.550;6.846;2023-07-13T14:11:46;5.53;;;3.47;;
37907;SDS011;23740;51.550;6.846;2023-07-13T14:14:19;5.03;;;4.53;;
37907;SDS011;23740;51.550;6.846;2023-07-13T14:16:48;5.78;;;3.58;;
37907;SDS011;23740;51.550;6.846;2023-07-13T14:19:20;4.00;;;3.70;;
37907;SDS011;23740;51.550;6.846;2023-07-13T14:21:48;3.47;;;2.95;;
37907;SDS011;23740;51.550;6.846;2023-07-13T14:24:19;5.63;;;3.70;;
37907;SDS011;23740;51.550;6.846;2023-07-13T14:26:47;6.97;;;3.75;;
37907;SDS011;23740;51.550;6.846;2023-07-13T14:29:16;5.97;;;3.78;;
37907;SDS011;23740;51.550;6.846;2023-07-13T14:31:50;3.47;;;2.72;;
37907;SDS011;23740;51.550;6.846;2023-07-13T14:34:18;3.90;;;3.60;;
37907;SDS011;23740;51.550;6.846;2023-07-13T14:36:47;2.65;;;2.45;;
37907;SDS011;23740;51.550;6.846;2023-07-13T14:39:17;3.40;;;2.60;;
37907;SDS011;23740;51.550;6.846;2023-07-13T14:41:49;3.17;;;2.70;;
37907;SDS011;23740;51.550;6.846;2023-07-13T14:44:21;3.33;;;2.83;;
37907;SDS011;23740;51.550;6.846;2023-07-13T14:46:50;3.97;;;3.10;;
37907;SDS011;23740;51.550;6.846;2023-07-13T14:49:21;3.30;;;2.45;;
37907;SDS011;23740;51.550;6.846;2023-07-13T14:51:51;3.00;;;2.75;;
37907;SDS011;23740;51.550;6.846;2023-07-13T14:54:19;4.85;;;3.70;;
37907;SDS011;23740;51.550;6.846;2023-07-13T14:56:47;7.45;;;3.28;;
37907;SDS011;23740;51.550;6.846;2023-07-13T14:59:15;2.42;;;2.22;;
37907;SDS011;23740;51.550;6.846;2023-07-13T15:01:46;2.50;;;2.00;;
37907;SDS011;23740;51.550;6.846;2023-07-13T15:04:15;2.47;;;2.28;;
37907;SDS011;23740;51.550;6.846;2023-07-13T15:06:53;3.00;;;2.72;;
37907;SDS011;23740;51.550;6.846;2023-07-13T15:09:22;2.90;;;2.03;;
37907;SDS011;23740;51.550;6.846;2023-07-13T15:11:52;3.33;;;2.30;;
37907;SDS011;23740;51.550;6.846;2023-07-13T15:14:20;4.13;;;2.72;;